Jamestown, South Carolina
Current Conditions -  °F | °C
As of 10:35 PM on Sunday 21 Dec 2014 (Local Time) from KMKS Reporting Station
Heavy Rain Heavy Rain  
Wind Chill: 46°   Ceiling: NA
Heat Index: 48°   Visibility: 4mi
Dew Point: 45°   Wind: 6mph
Humidity: 87%   Direction: 40°NE
Pressure: 30.12"   Gusts: NA
Location:  33.29°N, 79.69°W
Report Text: KMKS 220335Z AUTO 04005KT 4SM +RA 09/07 A3012 RMK AO2 P0012
Loading
Personal Weather Stations






























Interactive Weather Map New forecast layout! Learn more

10-Day Weather Forecast

Advertisements
Track Severe Weather on mobile